Time;durP1;ratioP1;P1;durP2;ratioP2;P2;SDS_P1;SDS_P2;PMS_P1;PMS_P2;Temp;Humidity;BMP_temperature;BMP_pressure;BME280_temperature;BME280_humidity;BME280_pressure;Samples;Min_cycle;Max_cycle;Signal;HPM_P1;HPM_P2
2022/08/01 00:00:14;;;;;;;2.83;1.40;;;28.00;48.90;;;;;;5050283;28;20401;-70
2022/08/01 00:03:18;;;;;;;14.75;1.55;;;28.00;49.10;;;;;;5049827;28;20044;-70
2022/08/01 00:06:22;;;;;;;5.47;1.20;;;28.00;49.30;;;;;;5053506;28;20075;-70
2022/08/01 00:09:26;;;;;;;14.90;1.40;;;27.90;49.50;;;;;;5053643;28;20492;-70
2022/08/01 00:12:30;;;;;;;6.57;1.73;;;27.80;49.70;;;;;;5052987;28;20507;-70
2022/08/01 00:15:34;;;;;;;5.18;1.60;;;27.90;49.90;;;;;;5053456;28;20056;-70
2022/08/01 00:18:39;;;;;;;12.18;1.67;;;27.90;49.80;;;;;;5053320;28;20048;-70
2022/08/01 00:21:43;;;;;;;6.65;1.40;;;27.70;50.40;;;;;;5053493;28;20404;-70
2022/08/01 00:24:46;;;;;;;14.35;1.50;;;27.80;50.20;;;;;;5053212;28;20524;-70
2022/08/01 00:27:50;;;;;;;12.20;1.50;;;27.70;50.50;;;;;;5053457;28;20468;-70
2022/08/01 00:30:54;;;;;;;5.90;1.50;;;27.70;50.30;;;;;;5053181;28;20049;-70
2022/08/01 00:33:59;;;;;;;13.13;1.90;;;27.70;50.40;;;;;;5053369;28;20048;-70
2022/08/01 00:37:03;;;;;;;12.82;1.77;;;27.60;50.60;;;;;;5053435;28;20043;-70
2022/08/01 00:40:07;;;;;;;8.57;1.95;;;27.60;50.90;;;;;;5052757;28;20060;-70
2022/08/01 00:43:11;;;;;;;8.98;1.73;;;27.70;50.60;;;;;;5052021;28;20044;-70
2022/08/01 00:46:15;;;;;;;5.18;1.63;;;27.50;50.60;;;;;;5052942;28;20055;-70
2022/08/01 00:49:20;;;;;;;6.57;2.00;;;27.50;50.90;;;;;;5052536;28;20500;-70
2022/08/01 00:52:24;;;;;;;3.17;1.42;;;27.50;50.70;;;;;;5052851;28;20056;-70
2022/08/01 00:55:29;;;;;;;3.60;1.50;;;27.30;50.70;;;;;;5053130;28;20047;-70
2022/08/01 00:58:34;;;;;;;3.78;1.42;;;27.30;50.80;;;;;;5052778;28;20491;-70
2022/08/01 01:01:38;;;;;;;6.65;1.50;;;27.10;51.00;;;;;;5053432;28;20044;-70
2022/08/01 01:04:45;;;;;;;4.28;1.58;;;27.10;51.30;;;;;;5052572;28;20047;-70
2022/08/01 01:08:06;;;;;;;6.00;1.70;;;27.10;51.30;;;;;;5052586;28;20047;-71
2022/08/01 01:11:30;;;;;;;3.72;1.20;;;27.20;51.30;;;;;;5052315;28;20044;-70
2022/08/01 01:14:54;;;;;;;9.52;1.45;;;27.20;51.20;;;;;;5052421;28;20051;-70
2022/08/01 01:18:48;;;;;;;4.57;1.45;;;27.30;51.10;;;;;;5052265;28;20048;-70
2022/08/01 01:22:18;;;;;;;4.78;1.98;;;27.20;51.00;;;;;;5052175;28;20044;-70
2022/08/01 01:25:31;;;;;;;15.13;1.70;;;27.20;51.20;;;;;;5052032;28;20056;-70
2022/08/01 01:28:58;;;;;;;3.15;1.50;;;27.30;50.80;;;;;;5052202;28;20048;-70
2022/08/01 01:32:07;;;;;;;3.60;1.20;;;27.30;50.90;;;;;;5051425;28;20052;-70
2022/08/01 01:35:17;;;;;;;6.85;1.30;;;27.30;50.80;;;;;;5051704;28;20048;-70
2022/08/01 01:38:26;;;;;;;2.70;1.70;;;27.20;51.10;;;;;;5052033;28;20040;-70
2022/08/01 01:41:31;;;;;;;5.10;1.40;;;27.00;51.20;;;;;;5052184;28;20047;-71
2022/08/01 01:44:37;;;;;;;6.53;1.58;;;27.10;51.70;;;;;;5051882;28;20032;-70
2022/08/01 01:47:43;;;;;;;5.60;1.65;;;27.00;51.70;;;;;;5052120;28;20060;-70
2022/08/01 01:50:49;;;;;;;2.25;1.50;;;27.00;51.90;;;;;;5051803;28;20508;-71
2022/08/01 01:53:55;;;;;;;9.48;1.60;;;27.10;51.80;;;;;;5051831;28;20043;-71
2022/08/01 01:57:01;;;;;;;3.15;1.50;;;27.10;51.50;;;;;;5051867;28;20047;-70
2022/08/01 02:00:11;;;;;;;4.95;1.67;;;27.10;52.10;;;;;;5039823;28;20055;-70
2022/08/01 02:03:17;;;;;;;8.00;1.80;;;27.00;52.50;;;;;;5051300;28;20044;-70
2022/08/01 02:06:23;;;;;;;2.90;1.55;;;26.90;53.10;;;;;;5051406;28;20072;-70
2022/08/01 02:09:28;;;;;;;4.45;1.60;;;26.90;53.60;;;;;;5051355;28;20491;-70
2022/08/01 02:12:36;;;;;;;3.63;2.08;;;26.90;53.40;;;;;;5051452;28;20044;-71
2022/08/01 02:15:40;;;;;;;6.78;1.83;;;26.80;53.80;;;;;;5051071;28;20047;-70
2022/08/01 02:18:44;;;;;;;10.77;2.30;;;26.60;54.70;;;;;;5050951;28;20052;-71
2022/08/01 02:21:57;;;;;;;4.90;1.63;;;26.60;55.00;;;;;;5051162;28;20392;-70
2022/08/01 02:25:25;;;;;;;11.27;2.38;;;26.50;55.20;;;;;;5050553;28;20056;-71
2022/08/01 02:28:34;;;;;;;10.02;1.80;;;26.40;55.80;;;;;;5050890;28;20056;-70
2022/08/01 02:31:44;;;;;;;6.82;2.03;;;26.40;56.10;;;;;;5050998;28;20043;-70
2022/08/01 02:34:50;;;;;;;5.88;2.10;;;26.50;55.10;;;;;;5050575;28;20603;-71
2022/08/01 02:37:57;;;;;;;4.25;1.95;;;26.30;56.00;;;;;;5051262;28;20067;-71
2022/08/01 02:41:05;;;;;;;6.53;1.92;;;26.20;56.00;;;;;;5050813;28;20499;-70
2022/08/01 02:44:15;;;;;;;8.98;2.00;;;26.20;57.00;;;;;;5050999;28;20046;-71
2022/08/01 02:47:22;;;;;;;4.53;2.05;;;26.20;56.90;;;;;;5050752;28;20052;-70
2022/08/01 02:50:29;;;;;;;7.03;2.20;;;26.10;56.80;;;;;;5051057;28;20044;-71
2022/08/01 02:53:36;;;;;;;8.02;2.00;;;26.00;56.60;;;;;;5050619;28;20063;-70
2022/08/01 02:56:42;;;;;;;13.32;1.90;;;26.00;56.60;;;;;;5051070;28;20042;-71
2022/08/01 02:59:47;;;;;;;9.20;2.00;;;26.00;56.50;;;;;;5050839;28;20526;-71
2022/08/01 03:02:54;;;;;;;8.13;2.25;;;26.00;57.50;;;;;;5050066;28;20032;-71
2022/08/01 03:06:00;;;;;;;11.63;2.40;;;25.90;57.80;;;;;;5050662;28;20056;-71
2022/08/01 03:09:06;;;;;;;13.68;2.15;;;25.80;58.20;;;;;;5050710;28;20048;-70
2022/08/01 03:12:15;;;;;;;14.05;2.30;;;25.80;57.70;;;;;;5050832;28;20060;-70
2022/08/01 03:15:20;;;;;;;7.93;2.05;;;25.90;57.00;;;;;;5049984;28;20048;-70
2022/08/01 03:18:26;;;;;;;19.95;2.35;;;26.00;55.70;;;;;;5050602;28;20048;-70
2022/08/01 03:21:32;;;;;;;19.58;2.65;;;26.00;55.90;;;;;;5050705;28;20044;-70
2022/08/01 03:24:39;;;;;;;15.55;2.58;;;26.00;57.40;;;;;;5050522;28;20044;-70
2022/08/01 03:27:45;;;;;;;10.35;1.75;;;26.00;57.50;;;;;;5050450;28;20056;-71
2022/08/01 03:30:50;;;;;;;6.93;1.55;;;26.10;54.30;;;;;;5050240;28;20048;-71
2022/08/01 03:33:55;;;;;;;17.55;9.05;;;26.20;56.10;;;;;;5050266;28;20044;-70
2022/08/01 03:37:24;;;;;;;10.35;3.08;;;26.20;55.70;;;;;;5050727;28;20044;-70
2022/08/01 03:40:40;;;;;;;7.18;1.50;;;26.20;54.70;;;;;;5052681;28;20072;-70
2022/08/01 03:43:51;;;;;;;4.75;1.55;;;26.40;53.70;;;;;;5054022;28;20048;-70
2022/08/01 03:47:01;;;;;;;;;;;26.50;53.50;;;;;;5054525;28;20051;-70
2022/08/01 03:50:08;;;;;;;5.50;1.33;;;26.60;51.60;;;;;;5053927;28;19920;-70
2022/08/01 03:53:14;;;;;;;7.90;1.42;;;26.60;51.00;;;;;;5053655;28;20044;-70
2022/08/01 03:56:19;;;;;;;11.40;1.60;;;26.60;52.90;;;;;;5053858;28;20060;-71
2022/08/01 03:59:24;;;;;;;10.60;2.15;;;26.70;52.60;;;;;;5053911;28;20389;-70
2022/08/01 04:02:29;;;;;;;4.82;1.60;;;26.80;53.10;;;;;;5053680;28;20044;-70
2022/08/01 04:05:33;;;;;;;15.13;1.70;;;26.80;52.50;;;;;;5054031;28;20052;-71
2022/08/01 04:08:38;;;;;;;8.50;1.65;;;26.80;52.40;;;;;;5054034;28;20039;-70
2022/08/01 04:11:43;;;;;;;5.47;1.95;;;26.80;51.00;;;;;;5052988;28;20040;-70
2022/08/01 04:14:47;;;;;;;6.32;1.27;;;26.80;50.80;;;;;;5053650;28;20048;-70
2022/08/01 04:17:51;;;;;;;6.50;1.20;;;26.90;51.80;;;;;;5053232;28;20044;-70
2022/08/01 04:20:55;;;;;;;7.80;1.90;;;26.90;50.60;;;;;;5053518;28;20044;-70
2022/08/01 04:24:07;;;;;;;6.63;1.17;;;26.90;51.20;;;;;;5053529;28;20052;-71
2022/08/01 04:27:15;;;;;;;7.05;1.50;;;27.00;51.40;;;;;;5053300;28;20063;-70
2022/08/01 04:30:24;;;;;;;7.35;1.30;;;27.00;52.10;;;;;;5052572;28;20048;-70
2022/08/01 04:33:30;;;;;;;10.02;1.30;;;26.90;51.70;;;;;;5053457;28;20499;-71
2022/08/01 04:36:37;;;;;;;6.15;1.23;;;27.00;51.10;;;;;;5053293;28;20040;-70
2022/08/01 04:39:42;;;;;;;5.47;1.30;;;27.10;51.00;;;;;;5052156;28;20128;-71
2022/08/01 04:42:48;;;;;;;2.90;1.40;;;27.20;51.60;;;;;;5053473;28;20048;-71
2022/08/01 04:45:54;;;;;;;13.20;2.30;;;27.60;51.40;;;;;;5053054;28;20044;-71
2022/08/01 04:49:00;;;;;;;14.40;2.00;;;28.50;50.50;;;;;;5052891;28;20048;-71
2022/08/01 04:52:06;;;;;;;14.68;2.20;;;29.80;49.00;;;;;;5052773;28;20047;-71
2022/08/01 04:55:10;;;;;;;9.15;1.90;;;30.90;47.70;;;;;;5052973;28;20199;-71
2022/08/01 04:58:15;;;;;;;7.65;1.92;;;32.20;46.10;;;;;;5052699;28;20048;-71
2022/08/01 05:01:19;;;;;;;12.57;2.17;;;33.30;45.30;;;;;;5052520;28;20036;-71
2022/08/01 05:04:23;;;;;;;8.00;2.10;;;34.20;45.00;;;;;;5052787;28;20056;-71
2022/08/01 05:07:27;;;;;;;9.52;2.78;;;34.70;44.80;;;;;;5052493;28;20507;-71
2022/08/01 05:10:31;;;;;;;7.57;2.05;;;35.20;44.80;;;;;;5052622;28;20048;-71
2022/08/01 05:13:35;;;;;;;11.95;2.03;;;35.30;43.70;;;;;;5051616;28;20048;-71
2022/08/01 05:16:39;;;;;;;5.03;1.25;;;35.20;44.50;;;;;;5051522;28;20040;-71
2022/08/01 05:19:43;;;;;;;10.38;1.40;;;34.70;43.90;;;;;;5052095;28;20396;-71
2022/08/01 05:22:47;;;;;;;5.13;1.30;;;34.50;44.00;;;;;;5052243;28;20063;-70
2022/08/01 05:25:51;;;;;;;4.20;1.50;;;33.80;45.10;;;;;;5052210;28;20048;-71
2022/08/01 05:28:58;;;;;;;7.97;1.30;;;33.20;46.00;;;;;;5052193;28;20048;-70
2022/08/01 05:32:03;;;;;;;5.82;1.30;;;32.60;46.60;;;;;;5052080;28;20044;-70
2022/08/01 05:35:10;;;;;;;13.52;2.40;;;32.10;47.10;;;;;;5051908;28;20064;-70
2022/08/01 05:38:14;;;;;;;9.10;2.75;;;32.00;47.00;;;;;;5051870;28;20044;-70
2022/08/01 05:41:18;;;;;;;14.93;3.85;;;32.00;47.50;;;;;;5051830;28;20060;-70
2022/08/01 05:44:22;;;;;;;7.50;1.50;;;32.20;47.60;;;;;;5051903;28;20056;-70
2022/08/01 05:47:26;;;;;;;9.88;1.60;;;32.10;47.70;;;;;;5051493;28;20060;-66
2022/08/01 05:50:29;;;;;;;10.13;1.52;;;32.00;48.60;;;;;;5051545;28;20191;-66
2022/08/01 05:53:34;;;;;;;5.97;1.40;;;31.80;48.80;;;;;;5051561;28;20495;-66
2022/08/01 05:56:38;;;;;;;5.72;1.38;;;31.60;48.20;;;;;;5051644;28;20048;-66
2022/08/01 05:59:42;;;;;;;2.85;1.65;;;31.10;49.60;;;;;;5051368;28;20044;-66
2022/08/01 06:02:46;;;;;;;4.20;2.10;;;31.00;49.20;;;;;;5050626;28;20048;-66
2022/08/01 06:05:52;;;;;;;9.95;2.00;;;31.00;49.00;;;;;;5051261;28;20060;-66
2022/08/01 06:08:56;;;;;;;12.57;1.85;;;31.10;49.30;;;;;;5051272;28;20051;-66
2022/08/01 06:12:00;;;;;;;5.18;1.80;;;31.20;49.80;;;;;;5051622;28;20511;-66
2022/08/01 06:15:05;;;;;;;10.73;2.33;;;31.50;49.60;;;;;;5051360;28;20051;-66
2022/08/01 06:18:13;;;;;;;8.75;1.73;;;31.80;49.00;;;;;;5051157;28;20052;-66
2022/08/01 06:21:17;;;;;;;4.35;2.20;;;31.90;48.90;;;;;;5051182;28;20122;-67
2022/08/01 06:24:23;;;;;;;7.22;2.10;;;31.70;48.40;;;;;;5051221;28;20492;-66
2022/08/01 06:27:27;;;;;;;14.15;2.53;;;31.70;48.40;;;;;;5050790;28;20056;-66
2022/08/01 06:30:31;;;;;;;13.20;2.40;;;32.00;49.80;;;;;;5051237;28;20040;-67
2022/08/01 06:33:36;;;;;;;15.90;2.10;;;32.20;49.00;;;;;;5050201;28;20039;-67
2022/08/01 06:36:39;;;;;;;9.05;2.30;;;32.20;49.30;;;;;;5049905;28;20048;-67
2022/08/01 06:39:43;;;;;;;19.27;3.00;;;32.40;49.40;;;;;;5050307;28;20052;-66
2022/08/01 06:42:48;;;;;;;12.35;2.15;;;32.60;48.90;;;;;;5050695;28;20040;-66
2022/08/01 06:45:52;;;;;;;13.13;1.60;;;32.50;48.90;;;;;;5050863;28;20044;-66
2022/08/01 06:48:56;;;;;;;11.10;1.50;;;32.50;48.60;;;;;;5050750;28;20644;-66
2022/08/01 06:51:59;;;;;;;9.07;1.40;;;32.60;48.70;;;;;;5050516;28;20111;-67
2022/08/01 06:55:05;;;;;;;6.82;1.65;;;32.60;48.40;;;;;;5050455;28;20036;-67
2022/08/01 06:58:09;;;;;;;3.88;1.40;;;32.30;47.40;;;;;;5050356;28;20040;-67
2022/08/01 07:01:13;;;;;;;5.57;1.90;;;32.00;48.40;;;;;;5050014;28;20040;-71
2022/08/01 07:04:17;;;;;;;8.23;1.33;;;32.20;49.10;;;;;;5049219;28;20048;-71
2022/08/01 07:07:20;;;;;;;8.98;1.30;;;32.80;48.00;;;;;;5050162;28;20542;-71
2022/08/01 07:10:24;;;;;;;2.60;1.27;;;33.00;47.40;;;;;;5050083;28;20044;-72
2022/08/01 07:13:30;;;;;;;11.57;1.80;;;33.10;46.90;;;;;;5051453;28;20376;-71
2022/08/01 07:16:34;;;;;;;8.05;1.50;;;33.10;47.00;;;;;;5054751;28;20057;-71
2022/08/01 07:19:39;;;;;;;4.60;1.88;;;33.30;46.30;;;;;;5054230;28;20047;-71
2022/08/01 07:22:43;;;;;;;4.22;1.42;;;33.50;45.90;;;;;;5054272;28;20038;-71
2022/08/01 07:25:48;;;;;;;5.32;1.60;;;33.50;45.40;;;;;;5054245;28;20044;-71
2022/08/01 07:28:53;;;;;;;6.82;2.28;;;33.30;45.70;;;;;;5054015;28;20053;-71
2022/08/01 07:31:58;;;;;;;2.22;1.40;;;33.50;45.90;;;;;;5054563;28;20044;-71
2022/08/01 07:35:03;;;;;;;6.35;1.75;;;33.50;46.10;;;;;;5054404;28;20068;-71
2022/08/01 07:38:07;;;;;;;4.95;1.75;;;33.90;45.90;;;;;;5054166;28;20051;-71
2022/08/01 07:41:12;;;;;;;13.35;1.73;;;33.60;46.20;;;;;;5053824;28;20064;-70
2022/08/01 07:44:16;;;;;;;6.28;1.40;;;33.40;45.40;;;;;;5054121;28;20464;-70
2022/08/01 07:47:27;;;;;;;4.18;1.52;;;33.10;46.00;;;;;;5053670;28;20056;-71
2022/08/01 07:50:31;;;;;;;2.40;1.20;;;33.20;46.20;;;;;;5053722;28;20048;-71
2022/08/01 07:53:38;;;;;;;4.28;1.77;;;33.40;45.10;;;;;;5053874;28;20052;-72
2022/08/01 07:56:42;;;;;;;7.88;1.45;;;33.60;45.20;;;;;;5053763;28;20044;-71
2022/08/01 07:59:46;;;;;;;6.40;1.55;;;34.20;45.10;;;;;;5053831;28;20044;-69
2022/08/01 08:02:50;;;;;;;5.20;1.40;;;35.00;44.80;;;;;;5053558;28;20503;-69
2022/08/01 08:05:54;;;;;;;2.42;1.23;;;34.80;44.30;;;;;;5054015;28;20052;-70
2022/08/01 08:08:58;;;;;;;5.05;1.33;;;35.00;44.40;;;;;;5053734;28;20060;-70
2022/08/01 08:12:02;;;;;;;5.20;1.52;;;35.30;44.20;;;;;;5053891;28;20048;-70
2022/08/01 08:15:07;;;;;;;3.80;1.20;;;35.80;44.00;;;;;;5052955;28;20040;-74
2022/08/01 08:18:11;;;;;;;3.10;1.33;;;35.60;43.80;;;;;;5053053;28;20044;-70
2022/08/01 08:21:15;;;;;;;4.43;1.40;;;36.10;43.50;;;;;;5052494;28;20076;-69
2022/08/01 08:24:19;;;;;;;4.50;1.40;;;35.90;44.30;;;;;;5053194;28;20048;-72
2022/08/01 08:27:23;;;;;;;5.07;1.50;;;35.60;44.40;;;;;;5052944;28;20048;-71
2022/08/01 08:30:27;;;;;;;4.18;1.60;;;35.50;43.70;;;;;;5052831;28;20036;-72
2022/08/01 08:33:31;;;;;;;10.70;1.63;;;35.30;44.30;;;;;;5052947;28;20040;-72
2022/08/01 08:36:35;;;;;;;7.13;1.60;;;35.30;45.00;;;;;;5052752;28;20052;-71
2022/08/01 08:39:41;;;;;;;5.80;1.50;;;35.30;44.70;;;;;;5052633;28;20052;-69
2022/08/01 08:42:48;;;;;;;3.47;0.93;;;34.30;45.80;;;;;;5052945;28;20045;-72
2022/08/01 08:45:53;;;;;;;3.25;1.58;;;34.70;45.50;;;;;;5052537;28;20036;-74
2022/08/01 08:48:57;;;;;;;4.45;2.30;;;34.20;45.60;;;;;;5052618;28;20052;-71
2022/08/01 08:52:02;;;;;;;5.90;1.83;;;34.50;45.70;;;;;;5052747;28;20055;-71
2022/08/01 08:55:07;;;;;;;10.35;1.55;;;34.80;45.50;;;;;;5052253;28;20043;-71
2022/08/01 08:58:17;;;;;;;3.28;1.65;;;35.10;44.70;;;;;;5052131;28;20384;-71
2022/08/01 09:01:21;;;;;;;10.07;1.43;;;34.90;45.30;;;;;;5051685;28;20047;-71
2022/08/01 09:04:26;;;;;;;5.40;1.80;;;34.70;45.40;;;;;;5052581;28;20283;-70
2022/08/01 09:07:30;;;;;;;6.72;1.50;;;34.10;45.10;;;;;;5052000;28;20052;-72
2022/08/01 09:10:34;;;;;;;3.67;1.40;;;34.00;45.90;;;;;;5052552;28;20044;-73
2022/08/01 09:13:38;;;;;;;10.05;1.90;;;34.10;46.00;;;;;;5052403;28;20408;-70
2022/08/01 09:16:44;;;;;;;2.67;1.40;;;34.10;46.50;;;;;;5052045;28;20496;-71
2022/08/01 09:19:51;;;;;;;5.68;1.60;;;33.60;45.80;;;;;;5052382;28;20064;-71
2022/08/01 09:22:56;;;;;;;5.22;1.50;;;33.80;45.90;;;;;;5052103;28;20060;-72
2022/08/01 09:26:03;;;;;;;3.95;1.55;;;33.90;46.30;;;;;;5052747;28;20040;-72
2022/08/01 09:29:18;;;;;;;9.35;1.60;;;34.00;45.50;;;;;;5051804;28;20052;-73
2022/08/01 09:32:22;;;;;;;6.75;1.67;;;33.80;46.10;;;;;;5051987;28;20044;-72
2022/08/01 09:35:34;;;;;;;4.00;1.58;;;33.70;46.10;;;;;;5050879;28;20052;-71
2022/08/01 09:38:38;;;;;;;8.82;2.33;;;33.50;46.60;;;;;;5051695;28;20045;-70
2022/08/01 09:41:42;;;;;;;8.13;2.10;;;33.30;46.40;;;;;;5051994;28;20227;-70
2022/08/01 09:44:46;;;;;;;3.33;1.73;;;35.60;45.50;;;;;;5051504;28;20040;-72
2022/08/01 09:47:51;;;;;;;9.32;1.70;;;36.50;43.90;;;;;;5038867;28;20052;-72
2022/08/01 09:50:56;;;;;;;2.90;1.67;;;37.60;43.20;;;;;;5051389;28;20040;-73
2022/08/01 09:54:04;;;;;;;11.13;1.70;;;37.70;42.90;;;;;;5051783;28;20388;-73
2022/08/01 09:57:16;;;;;;;8.73;1.42;;;36.90;43.20;;;;;;5051578;28;20503;-73
2022/08/01 10:00:20;;;;;;;5.80;1.60;;;37.20;43.70;;;;;;5051644;28;20051;-72
2022/08/01 10:03:29;;;;;;;3.55;1.65;;;37.80;42.80;;;;;;5051574;28;20052;-73
2022/08/01 10:06:33;;;;;;;5.40;1.63;;;38.10;42.90;;;;;;5051190;28;20048;-70
2022/08/01 10:09:37;;;;;;;8.93;1.52;;;38.70;43.10;;;;;;5050359;28;20503;-70
2022/08/01 10:12:44;;;;;;;3.17;1.33;;;38.50;41.80;;;;;;5051059;28;20042;-71
2022/08/01 10:15:48;;;;;;;7.10;1.75;;;37.90;42.80;;;;;;5051175;28;20048;-71
2022/08/01 10:18:54;;;;;;;7.55;1.73;;;38.50;42.40;;;;;;5051131;28;20044;-71
2022/08/01 10:21:58;;;;;;;7.65;1.33;;;39.20;41.80;;;;;;5051237;28;20392;-71
2022/08/01 10:25:04;;;;;;;2.53;1.40;;;39.30;42.20;;;;;;5051062;28;20460;-71
2022/08/01 10:28:16;;;;;;;5.30;1.90;;;39.10;42.10;;;;;;5050398;28;20063;-72
2022/08/01 10:31:20;;;;;;;7.63;1.83;;;38.40;42.70;;;;;;5050538;28;20488;-72
2022/08/01 10:34:24;;;;;;;3.42;1.55;;;37.70;42.50;;;;;;5049458;28;20043;-72
2022/08/01 10:37:29;;;;;;;3.80;1.33;;;36.80;42.90;;;;;;5050377;28;20040;-72
2022/08/01 10:40:35;;;;;;;5.00;1.33;;;36.20;44.20;;;;;;5050532;28;20404;-71
2022/08/01 10:43:39;;;;;;;10.25;1.40;;;35.80;45.50;;;;;;5050851;28;20044;-71
2022/08/01 10:46:52;;;;;;;6.95;1.30;;;35.60;43.90;;;;;;5051326;28;20056;-71
2022/08/01 10:50:13;;;;;;;8.88;1.40;;;35.30;44.50;;;;;;5050764;28;20053;-71
2022/08/01 10:53:22;;;;;;;8.73;1.50;;;35.10;44.70;;;;;;5050831;28;20396;-71
2022/08/01 10:56:48;;;;;;;5.43;2.10;;;34.80;45.20;;;;;;5038402;28;20115;-74
2022/08/01 10:59:54;;;;;;;2.30;1.65;;;34.80;45.30;;;;;;5050677;28;20040;-72
2022/08/01 11:03:00;;;;;;;13.00;1.80;;;34.60;44.80;;;;;;5050874;28;20043;-72
2022/08/01 11:06:04;;;;;;;15.40;5.50;;;34.60;44.00;;;;;;5050507;28;20044;-72
2022/08/01 11:09:24;;;;;;;10.95;4.50;;;34.70;44.30;;;;;;5050379;28;20524;-72
2022/08/01 11:12:42;;;;;;;7.85;1.70;;;34.20;44.40;;;;;;5050738;28;20384;-71
2022/08/01 11:15:46;;;;;;;5.28;1.85;;;34.10;44.80;;;;;;5049706;28;20052;-71
2022/08/01 11:18:51;;;;;;;11.85;3.85;;;34.00;44.90;;;;;;5050282;28;20064;-71
2022/08/01 11:21:59;;;;;;;9.27;3.33;;;34.00;44.80;;;;;;5050714;28;20036;-72
2022/08/01 11:25:03;;;;;;;8.80;3.00;;;34.00;45.10;;;;;;5050503;28;20052;-72
2022/08/01 11:28:13;;;;;;;24.20;3.25;;;34.10;45.00;;;;;;5050087;28;20048;-72
2022/08/01 11:31:20;;;;;;;7.78;1.90;;;34.10;45.70;;;;;;5050522;28;20044;-72
2022/08/01 11:34:56;;;;;;;3.75;2.47;;;34.30;46.10;;;;;;5050391;28;20056;-72
2022/08/01 11:38:23;;;;;;;7.07;1.80;;;34.40;44.80;;;;;;5050065;28;20040;-72
2022/08/01 11:41:30;;;;;;;15.48;2.10;;;34.50;45.30;;;;;;5050197;28;20376;-72
2022/08/01 11:44:50;;;;;;;9.93;2.00;;;34.50;45.30;;;;;;5050093;28;20036;-72
2022/08/01 11:47:55;;;;;;;6.30;1.80;;;34.50;45.10;;;;;;5049022;28;20056;-72
2022/08/01 11:50:59;;;;;;;6.97;1.45;;;34.40;45.50;;;;;;5050029;28;20043;-72
2022/08/01 11:54:04;;;;;;;16.50;2.30;;;34.30;44.80;;;;;;5050344;28;20064;-72
2022/08/01 11:57:13;;;;;;;3.78;1.50;;;34.30;45.40;;;;;;5050397;28;20408;-72
2022/08/01 12:00:18;;;;;;;7.95;1.85;;;34.30;45.10;;;;;;5050862;28;20060;-72
2022/08/01 12:03:27;;;;;;;4.00;1.42;;;34.30;45.00;;;;;;5053823;28;20052;-72
2022/08/01 12:06:31;;;;;;;2.55;1.30;;;34.30;45.00;;;;;;5053872;28;20043;-72
2022/08/01 12:09:35;;;;;;;4.05;1.80;;;34.30;45.50;;;;;;5053804;28;20052;-72
2022/08/01 12:16:11;;;;;;;6.15;2.03;;;34.50;44.90;;;;;;5053453;28;20044;-71
2022/08/01 12:19:24;;;;;;;7.95;1.50;;;34.50;45.10;;;;;;5053442;28;20043;-72
2022/08/01 12:22:28;;;;;;;1.67;1.10;;;34.40;45.10;;;;;;5053486;28;20047;-72
2022/08/01 12:25:33;;;;;;;4.60;1.23;;;34.30;45.00;;;;;;5053268;28;20068;-71
2022/08/01 12:28:40;;;;;;;3.70;1.30;;;34.30;45.00;;;;;;5053060;28;20060;-72
2022/08/01 12:31:44;;;;;;;17.35;1.55;;;34.20;45.10;;;;;;5053262;28;20064;-71
2022/08/01 12:34:48;;;;;;;5.82;1.60;;;34.30;45.70;;;;;;5053419;28;20052;-71
2022/08/01 12:37:53;;;;;;;3.83;1.30;;;34.40;45.70;;;;;;5053255;28;20043;-71
2022/08/01 12:40:58;;;;;;;6.65;1.52;;;34.60;45.80;;;;;;5053000;28;20453;-70
2022/08/01 12:44:02;;;;;;;5.03;1.40;;;35.40;44.70;;;;;;5053052;28;20069;-72
2022/08/01 12:47:06;;;;;;;5.75;1.42;;;37.10;43.10;;;;;;5053023;28;20056;-72
2022/08/01 12:50:31;;;;;;;5.00;1.50;;;37.90;42.60;;;;;;5052715;28;20056;-74
2022/08/01 12:53:35;;;;;;;2.15;1.30;;;38.50;42.00;;;;;;5052762;28;20044;-73
2022/08/01 12:56:39;;;;;;;2.75;1.02;;;38.40;41.80;;;;;;5052823;28;20051;-72
2022/08/01 12:59:43;;;;;;;3.10;1.25;;;38.50;41.50;;;;;;5052945;28;20044;-71
2022/08/01 13:02:49;;;;;;;4.43;1.52;;;38.40;41.80;;;;;;5052515;28;20044;-71
2022/08/01 13:05:58;;;;;;;4.65;1.10;;;38.10;41.80;;;;;;5052922;28;20056;-70
2022/08/01 13:09:11;;;;;;;6.18;1.42;;;38.10;42.00;;;;;;5052154;28;20116;-72
2022/08/01 13:12:15;;;;;;;11.95;1.63;;;37.60;42.20;;;;;;5052561;28;20048;-72
2022/08/01 13:15:21;;;;;;;2.42;1.10;;;37.30;42.70;;;;;;5052049;28;20044;-72
2022/08/01 13:18:30;;;;;;;8.32;1.40;;;37.60;42.50;;;;;;5052261;28;20396;-74
2022/08/01 13:21:35;;;;;;;3.93;1.00;;;37.70;42.90;;;;;;5051617;28;20495;-73
2022/08/01 13:24:39;;;;;;;3.40;1.15;;;38.10;42.00;;;;;;5052119;28;20048;-70
2022/08/01 13:27:42;;;;;;;5.90;1.40;;;37.80;42.20;;;;;;5051893;28;20056;-70
2022/08/01 13:30:58;;;;;;;2.33;1.30;;;38.00;42.10;;;;;;5051084;28;20508;-69
2022/08/01 13:34:03;;;;;;;9.10;1.30;;;38.50;41.30;;;;;;5051631;28;20044;-69
2022/08/01 13:37:08;;;;;;;4.60;1.27;;;37.80;41.50;;;;;;5051469;28;20052;-74
2022/08/01 13:40:22;;;;;;;5.60;1.20;;;37.60;42.20;;;;;;5051697;28;20511;-72
2022/08/01 13:43:26;;;;;;;3.35;1.10;;;37.20;42.30;;;;;;5052147;28;20048;-72
2022/08/01 13:46:31;;;;;;;2.40;1.42;;;36.60;43.10;;;;;;5039596;28;20044;-74
2022/08/01 13:49:35;;;;;;;6.18;1.20;;;37.60;42.20;;;;;;5051606;28;20400;-72
2022/08/01 13:52:39;;;;;;;3.67;1.15;;;38.50;41.80;;;;;;5051685;28;20052;-75
2022/08/01 13:55:44;;;;;;;4.07;1.08;;;38.20;41.50;;;;;;5051623;28;20056;-72
2022/08/01 13:58:51;;;;;;;3.03;1.00;;;38.40;41.40;;;;;;5050733;28;20056;-70
2022/08/01 14:01:55;;;;;;;11.73;1.73;;;38.80;40.60;;;;;;5051216;28;20503;-70
2022/08/01 14:04:58;;;;;;;2.95;1.20;;;39.10;40.80;;;;;;5051294;28;20048;-69
2022/08/01 14:08:04;;;;;;;7.07;1.25;;;39.20;40.50;;;;;;5051010;28;20056;-70
2022/08/01 14:11:08;;;;;;;2.05;1.02;;;38.80;40.70;;;;;;5051013;28;20040;-71
2022/08/01 14:14:13;;;;;;;1.20;0.90;;;37.60;41.70;;;;;;5051185;28;20044;-70
2022/08/01 14:17:17;;;;;;;5.30;1.08;;;37.60;42.60;;;;;;5051114;28;20392;-72
2022/08/01 14:20:21;;;;;;;4.03;1.20;;;38.50;41.80;;;;;;5051188;28;20052;-72
2022/08/01 14:23:26;;;;;;;1.70;0.90;;;38.00;41.20;;;;;;5050527;28;20048;-74
2022/08/01 14:26:30;;;;;;;5.53;1.17;;;37.50;41.40;;;;;;5051515;28;20051;-73
2022/08/01 14:29:33;;;;;;;4.82;1.10;;;37.30;41.60;;;;;;5051280;28;20052;-73
2022/08/01 14:32:37;;;;;;;4.03;1.33;;;37.10;41.90;;;;;;5051635;28;20044;-72
2022/08/01 14:35:42;;;;;;;2.13;1.20;;;37.90;41.40;;;;;;5051578;28;20048;-72
2022/08/01 14:38:46;;;;;;;2.28;1.05;;;38.60;40.60;;;;;;5050799;28;20542;-73
2022/08/01 14:41:50;;;;;;;3.58;1.00;;;38.70;40.60;;;;;;5050956;28;20052;-71
2022/08/01 14:44:56;;;;;;;3.33;1.08;;;38.50;40.30;;;;;;5050927;28;20056;-72
2022/08/01 14:48:00;;;;;;;1.42;0.98;;;37.60;41.00;;;;;;5050889;28;20492;-72
2022/08/01 14:51:06;;;;;;;2.22;0.82;;;38.40;40.90;;;;;;5050873;28;20048;-75
2022/08/01 14:54:10;;;;;;;3.30;0.90;;;38.70;40.30;;;;;;5051089;28;20495;-73
2022/08/01 14:57:17;;;;;;;3.22;1.40;;;39.00;40.30;;;;;;5050781;28;20052;-73
2022/08/01 15:00:21;;;;;;;1.80;0.90;;;39.00;40.10;;;;;;5050702;28;20036;-76
2022/08/01 15:03:26;;;;;;;1.33;1.00;;;37.60;40.80;;;;;;5050529;28;20048;-73
2022/08/01 15:06:30;;;;;;;1.40;0.90;;;36.70;41.10;;;;;;5049697;28;20036;-76
2022/08/01 15:09:34;;;;;;;6.18;1.20;;;36.10;41.80;;;;;;5050736;28;20516;-74
2022/08/01 15:12:37;;;;;;;3.67;1.10;;;35.80;42.20;;;;;;5049984;28;20044;-76
2022/08/01 15:15:42;;;;;;;2.92;1.15;;;35.60;42.30;;;;;;5050875;28;20047;-76
2022/08/01 15:18:46;;;;;;;3.80;1.17;;;35.40;42.20;;;;;;5050450;28;20528;-77
2022/08/01 15:21:49;;;;;;;3.20;1.10;;;35.20;42.40;;;;;;5050644;28;20060;-74
2022/08/01 15:24:55;;;;;;;1.73;0.90;;;35.00;42.40;;;;;;5050303;28;20052;-77
2022/08/01 15:27:59;;;;;;;5.15;1.08;;;35.00;42.70;;;;;;5049826;28;20058;-72
2022/08/01 15:31:03;;;;;;;2.42;1.50;;;34.90;42.80;;;;;;5050310;28;20048;-73
2022/08/01 15:34:07;;;;;;;4.30;1.00;;;34.90;43.20;;;;;;5051094;28;20056;-72
2022/08/01 15:37:13;;;;;;;5.85;1.20;;;34.80;42.60;;;;;;5054133;28;20044;-73
2022/08/01 15:40:17;;;;;;;1.40;0.90;;;34.80;43.20;;;;;;5054169;28;20052;-72
2022/08/01 15:43:21;;;;;;;9.25;4.35;;;34.80;44.50;;;;;;5053121;28;20044;-73
2022/08/01 15:46:25;;;;;;;26.95;20.92;;;34.90;45.50;;;;;;5054388;28;20044;-73
2022/08/01 15:49:30;;;;;;;9.85;5.25;;;35.00;46.10;;;;;;5053892;28;20503;-71
2022/08/01 15:52:33;;;;;;;15.75;3.40;;;34.90;45.10;;;;;;5053717;28;20044;-73
2022/08/01 15:55:38;;;;;;;17.00;9.70;;;34.90;46.40;;;;;;5052477;28;20416;-75
2022/08/01 15:58:42;;;;;;;14.77;8.77;;;34.90;46.70;;;;;;5053599;28;20040;-75
2022/08/01 16:01:48;;;;;;;17.20;10.45;;;34.90;47.20;;;;;;5053618;28;20527;-75
2022/08/01 16:04:52;;;;;;;7.47;5.63;;;34.90;47.80;;;;;;5053066;28;20044;-75
2022/08/01 16:07:57;;;;;;;16.33;7.03;;;34.90;47.50;;;;;;5053609;28;20158;-74
2022/08/01 16:11:00;;;;;;;11.95;5.82;;;34.90;47.30;;;;;;5053827;28;20048;-75